Time;durP1;ratioP1;P1;durP2;ratioP2;P2;SDS_P1;SDS_P2;PMS_P1;PMS_P2;Temp;Humidity;BMP_temperature;BMP_pressure;BME280_temperature;BME280_humidity;BME280_pressure;Samples;Min_cycle;Max_cycle;Signal;HPM_P1;HPM_P2
2022/04/28 00:00:30;;;;;;;9.15;8.07;;;5.50;99.90;;;;;;6269212;22;20183;-68
2022/04/28 00:02:57;;;;;;;10.13;8.52;;;5.40;99.90;;;;;;6268771;22;20569;-67
2022/04/28 00:05:24;;;;;;;8.98;7.35;;;5.40;99.90;;;;;;6268328;22;20203;-68
2022/04/28 00:07:53;;;;;;;8.68;7.40;;;5.40;99.90;;;;;;6269142;22;20172;-68
2022/04/28 00:10:20;;;;;;;9.05;7.93;;;5.30;99.90;;;;;;6268091;22;20184;-68
2022/04/28 00:12:47;;;;;;;8.15;7.20;;;5.30;99.90;;;;;;6268962;22;20183;-68
2022/04/28 00:15:13;;;;;;;9.77;7.45;;;5.30;99.90;;;;;;6268149;22;20196;-68
2022/04/28 00:17:40;;;;;;;10.68;7.80;;;5.30;99.90;;;;;;6268789;22;20195;-67
2022/04/28 00:20:08;;;;;;;8.60;7.65;;;5.20;99.90;;;;;;6267904;22;20179;-67
2022/04/28 00:22:35;;;;;;;8.60;7.80;;;5.20;99.90;;;;;;6268900;22;20663;-68
2022/04/28 00:25:05;;;;;;;8.20;7.35;;;5.20;99.90;;;;;;6268730;22;20722;-68
2022/04/28 00:27:33;;;;;;;7.82;7.10;;;5.20;99.90;;;;;;6267614;22;20180;-68
2022/04/28 00:30:00;;;;;;;9.70;8.00;;;5.20;99.90;;;;;;6267892;22;20179;-68
2022/04/28 00:32:27;;;;;;;10.45;8.13;;;5.20;99.90;;;;;;6268869;22;20182;-68
2022/04/28 00:34:53;;;;;;;8.73;7.90;;;5.20;99.90;;;;;;6268125;22;20253;-68
2022/04/28 00:37:21;;;;;;;8.48;7.68;;;5.10;99.90;;;;;;6268779;22;20509;-67
2022/04/28 00:39:48;;;;;;;8.00;7.20;;;5.10;99.90;;;;;;6266854;22;20180;-68
2022/04/28 00:42:17;;;;;;;10.00;7.82;;;5.10;99.90;;;;;;6268537;22;20176;-67
2022/04/28 00:44:45;;;;;;;10.30;7.90;;;5.10;99.90;;;;;;6268787;22;20203;-67
2022/04/28 00:47:12;;;;;;;8.65;7.80;;;5.10;99.90;;;;;;6265468;22;20227;-70
2022/04/28 00:52:25;;;;;;;8.77;7.85;;;5.10;99.90;;;;;;6269960;22;20608;-70
2022/04/28 00:54:53;;;;;;;9.45;8.25;;;5.10;99.90;;;;;;6272313;22;20195;-70
2022/04/28 00:57:22;;;;;;;9.23;7.82;;;5.00;99.90;;;;;;6272173;22;20668;-70
2022/04/28 00:59:49;;;;;;;10.15;8.25;;;5.00;99.90;;;;;;6272529;22;20178;-69
2022/04/28 01:02:18;;;;;;;10.20;7.38;;;5.00;99.90;;;;;;6274212;22;20176;-70
2022/04/28 01:04:45;;;;;;;9.85;7.63;;;4.90;99.90;;;;;;6273206;22;20695;-70
2022/04/28 01:07:12;;;;;;;9.38;7.93;;;4.90;99.90;;;;;;6274246;22;20179;-70
2022/04/28 01:09:40;;;;;;;9.13;8.13;;;4.90;99.90;;;;;;6273355;22;20179;-69
2022/04/28 01:12:08;;;;;;;8.45;7.35;;;4.90;99.90;;;;;;6273951;22;20176;-70
2022/04/28 01:14:36;;;;;;;9.80;7.70;;;4.90;99.90;;;;;;6274475;22;20206;-71
2022/04/28 01:17:04;;;;;;;8.77;7.53;;;4.90;99.90;;;;;;6273346;22;20176;-70
2022/04/28 01:19:31;;;;;;;7.80;7.00;;;4.80;99.90;;;;;;6273463;22;20179;-71
2022/04/28 01:21:59;;;;;;;7.32;6.10;;;4.80;99.90;;;;;;6273862;22;20179;-71
2022/04/28 01:24:25;;;;;;;9.60;8.45;;;4.70;99.90;;;;;;6274446;22;20196;-71
2022/04/28 01:26:55;;;;;;;8.90;7.43;;;4.70;99.90;;;;;;6273934;22;20171;-70
2022/04/28 01:29:22;;;;;;;8.10;7.30;;;4.70;99.90;;;;;;6272985;22;20176;-70
2022/04/28 01:31:49;;;;;;;10.55;8.20;;;4.70;99.90;;;;;;6274187;22;20274;-70
2022/04/28 01:34:16;;;;;;;9.07;7.78;;;4.70;99.90;;;;;;6274055;22;20203;-70
2022/04/28 01:36:43;;;;;;;9.18;7.63;;;4.70;99.90;;;;;;6275138;22;20198;-70
2022/04/28 01:39:11;;;;;;;9.57;8.57;;;4.70;99.90;;;;;;6272901;22;20226;-70
2022/04/28 01:41:38;;;;;;;10.10;8.13;;;4.60;99.90;;;;;;6274729;22;20179;-70
2022/04/28 01:44:05;;;;;;;9.27;7.60;;;4.70;99.90;;;;;;6275172;22;20684;-70
2022/04/28 01:46:32;;;;;;;9.63;7.53;;;4.60;99.90;;;;;;6275948;22;20172;-70
2022/04/28 01:48:59;;;;;;;8.02;7.22;;;4.60;99.90;;;;;;6302786;22;20186;-70
2022/04/28 01:56:56;;;;;;;9.05;7.90;;;4.50;99.90;;;;;;6306236;22;20186;-70
2022/04/28 01:59:22;;;;;;;7.90;7.10;;;4.50;99.90;;;;;;6308060;22;20171;-70
2022/04/28 02:01:50;;;;;;;8.98;7.80;;;4.50;99.90;;;;;;6305802;22;20175;-71
2022/04/28 02:04:17;;;;;;;9.43;8.13;;;4.50;99.90;;;;;;6305780;22;20199;-71
2022/04/28 02:06:43;;;;;;;8.15;7.07;;;4.50;99.90;;;;;;6305003;22;20230;-70
2022/04/28 02:09:12;;;;;;;9.85;7.90;;;4.40;99.90;;;;;;6304432;22;20662;-70
2022/04/28 02:11:38;;;;;;;7.55;6.85;;;4.40;99.90;;;;;;6305499;22;20174;-70
2022/04/28 02:14:05;;;;;;;8.75;7.38;;;4.40;99.90;;;;;;6305364;22;20228;-70
2022/04/28 02:16:32;;;;;;;8.75;7.85;;;4.40;99.90;;;;;;6305384;22;20237;-70
2022/04/28 02:18:59;;;;;;;8.77;6.93;;;4.40;99.90;;;;;;6304694;22;20175;-70
2022/04/28 02:21:25;;;;;;;7.88;6.82;;;4.30;99.90;;;;;;6315822;22;20171;-71
2022/04/28 02:23:52;;;;;;;9.40;7.93;;;4.30;99.90;;;;;;6305145;22;20191;-71
2022/04/28 02:26:20;;;;;;;9.50;7.95;;;4.30;99.90;;;;;;6305138;22;20192;-70
2022/04/28 02:28:47;;;;;;;8.20;7.40;;;4.30;99.90;;;;;;6304661;22;20182;-71
2022/04/28 02:31:13;;;;;;;7.68;6.80;;;4.30;99.90;;;;;;6305311;22;20171;-70
2022/04/28 02:33:40;;;;;;;8.52;7.07;;;4.30;99.90;;;;;;6305429;22;20215;-70
2022/04/28 02:36:07;;;;;;;8.75;7.43;;;4.20;99.90;;;;;;6305136;22;20198;-71
2022/04/28 02:38:34;;;;;;;8.68;7.53;;;4.30;99.90;;;;;;6304638;22;20235;-70
2022/04/28 02:41:00;;;;;;;8.85;7.95;;;4.20;99.90;;;;;;6305051;22;20182;-71
2022/04/28 02:43:28;;;;;;;9.15;7.80;;;4.20;99.90;;;;;;6305051;22;20174;-71
2022/04/28 02:45:55;;;;;;;9.27;8.27;;;4.20;99.90;;;;;;6305736;22;20171;-71
2022/04/28 02:48:22;;;;;;;10.93;7.93;;;4.20;99.90;;;;;;6304491;22;20190;-71
2022/04/28 02:50:49;;;;;;;8.98;7.60;;;4.10;99.90;;;;;;6305307;22;20175;-70
2022/04/28 02:53:15;;;;;;;8.18;7.35;;;4.10;99.90;;;;;;6306007;22;20185;-70
2022/04/28 02:55:43;;;;;;;9.45;7.88;;;4.00;99.90;;;;;;6304364;22;20191;-70
2022/04/28 02:58:10;;;;;;;10.23;8.65;;;4.00;99.90;;;;;;6304480;22;20258;-70
2022/04/28 03:00:38;;;;;;;11.25;7.80;;;4.00;99.90;;;;;;6305405;22;20171;-71
2022/04/28 03:03:05;;;;;;;9.73;7.82;;;4.00;99.90;;;;;;6313325;22;20209;-71
2022/04/28 03:10:46;;;;;;;10.90;8.95;;;4.00;99.90;;;;;;6303521;22;20192;-71
2022/04/28 03:11:03;;;;;;;9.43;8.43;;;4.00;99.90;;;;;;6304213;22;20240;-70
2022/04/28 03:13:32;;;;;;;9.18;8.27;;;3.90;99.90;;;;;;6303871;22;20604;-71
2022/04/28 03:16:00;;;;;;;9.95;8.93;;;3.90;99.90;;;;;;6303310;22;20508;-71
2022/04/28 03:18:27;;;;;;;9.30;8.30;;;3.90;99.90;;;;;;6303275;22;20175;-70
2022/04/28 03:20:54;;;;;;;8.70;7.80;;;3.90;99.90;;;;;;6303630;22;20201;-70
2022/04/28 03:23:21;;;;;;;10.05;8.00;;;3.90;99.90;;;;;;6303558;22;20225;-70
2022/04/28 03:25:49;;;;;;;9.40;8.18;;;3.90;99.90;;;;;;6303455;22;20171;-70
2022/04/28 03:28:16;;;;;;;9.68;8.55;;;3.90;99.90;;;;;;6302511;22;20195;-70
2022/04/28 03:30:43;;;;;;;10.30;8.50;;;3.80;99.90;;;;;;6303609;22;20178;-71
2022/04/28 03:33:11;;;;;;;9.15;8.25;;;3.80;99.90;;;;;;6312770;22;20171;-71
2022/04/28 03:35:38;;;;;;;12.32;9.40;;;3.80;99.90;;;;;;6303248;22;20195;-70
2022/04/28 03:38:07;;;;;;;10.18;8.50;;;3.80;99.90;;;;;;6301841;22;20632;-71
2022/04/28 03:40:34;;;;;;;9.40;8.40;;;3.80;99.90;;;;;;6301628;22;20253;-70
2022/04/28 03:43:01;;;;;;;11.40;8.70;;;3.70;99.90;;;;;;6302197;22;20181;-70
2022/04/28 03:45:28;;;;;;;9.73;8.57;;;3.70;99.90;;;;;;6302040;22;20306;-71
2022/04/28 03:47:55;;;;;;;9.40;8.40;;;3.70;99.90;;;;;;6301880;22;20183;-70
2022/04/28 03:50:23;;;;;;;9.93;8.50;;;3.70;99.90;;;;;;6301880;22;20503;-71
2022/04/28 03:52:50;;;;;;;10.25;8.48;;;3.70;99.90;;;;;;6302389;22;20193;-71
2022/04/28 03:55:17;;;;;;;9.60;8.63;;;3.70;99.90;;;;;;6302393;22;20197;-70
2022/04/28 03:57:44;;;;;;;10.85;9.55;;;3.70;99.90;;;;;;6301378;22;20198;-70
2022/04/28 04:00:12;;;;;;;9.32;8.32;;;3.60;99.90;;;;;;6301582;22;20175;-70
2022/04/28 04:02:38;;;;;;;9.52;7.50;;;3.60;99.90;;;;;;6301520;22;20931;-71
2022/04/28 04:05:06;;;;;;;9.45;8.00;;;3.60;99.90;;;;;;6301609;22;20191;-70
2022/04/28 04:07:35;;;;;;;9.63;7.60;;;3.50;99.90;;;;;;6302924;22;20650;-71
2022/04/28 04:10:02;;;;;;;9.90;8.00;;;3.50;99.90;;;;;;6302005;22;20182;-71
2022/04/28 04:12:29;;;;;;;10.70;9.15;;;3.50;99.90;;;;;;6302852;22;20484;-73
2022/04/28 04:14:56;;;;;;;9.55;8.55;;;3.50;99.90;;;;;;6302515;22;20727;-73
2022/04/28 04:17:22;;;;;;;10.30;8.73;;;3.50;99.90;;;;;;6302767;22;20214;-72
2022/04/28 04:19:49;;;;;;;10.25;8.27;;;3.50;99.90;;;;;;6302274;22;20284;-72
2022/04/28 04:22:16;;;;;;;10.77;8.85;;;3.50;99.90;;;;;;6302859;22;20179;-73
2022/04/28 04:24:44;;;;;;;10.57;8.55;;;3.50;99.90;;;;;;6300587;22;20680;-72
2022/04/28 04:27:12;;;;;;;11.48;8.52;;;3.50;99.90;;;;;;6303155;22;20253;-72
2022/04/28 04:29:39;;;;;;;10.35;9.25;;;3.50;99.90;;;;;;6302641;22;20175;-72
2022/04/28 04:32:18;;;;;;;12.48;9.43;;;3.60;99.90;;;;;;6303122;22;20273;-72
2022/04/28 04:34:45;;;;;;;11.20;9.27;;;3.60;99.90;;;;;;6302623;22;20191;-72
2022/04/28 04:37:12;;;;;;;12.20;9.45;;;3.60;99.90;;;;;;6304223;22;20187;-72
2022/04/28 04:39:40;;;;;;;10.05;8.23;;;3.60;99.90;;;;;;6304792;22;20175;-72
2022/04/28 04:42:09;;;;;;;10.43;8.85;;;3.70;99.90;;;;;;6304951;22;20175;-72
2022/04/28 04:44:36;;;;;;;9.50;8.50;;;3.70;99.90;;;;;;6304813;22;20694;-72
2022/04/28 04:47:04;;;;;;;10.90;8.98;;;3.70;99.90;;;;;;6304164;22;20195;-72
2022/04/28 04:49:31;;;;;;;9.50;8.55;;;3.80;99.90;;;;;;6304896;22;20603;-72
2022/04/28 04:51:57;;;;;;;11.70;9.30;;;3.80;99.90;;;;;;6314523;22;20175;-72
2022/04/28 04:54:24;;;;;;;15.13;9.27;;;3.80;99.90;;;;;;6305021;22;20267;-73
2022/04/28 04:56:51;;;;;;;11.63;9.32;;;3.80;99.90;;;;;;6304927;22;20194;-73
2022/04/28 04:59:19;;;;;;;11.10;9.43;;;3.90;99.90;;;;;;6303336;22;20187;-72
2022/04/28 05:01:46;;;;;;;11.63;9.73;;;4.00;99.90;;;;;;6305069;22;20536;-73
2022/04/28 05:04:12;;;;;;;15.60;10.68;;;4.00;99.90;;;;;;6305180;22;20199;-73
2022/04/28 05:06:39;;;;;;;11.82;10.25;;;4.10;99.90;;;;;;6303843;22;20177;-72
2022/04/28 05:09:06;;;;;;;12.23;9.60;;;4.20;99.90;;;;;;6304379;22;20179;-72
2022/04/28 05:11:32;;;;;;;11.48;9.60;;;4.20;99.90;;;;;;6304292;22;20179;-73
2022/04/28 05:13:59;;;;;;;11.93;9.60;;;4.30;99.90;;;;;;6304402;22;20201;-73
2022/04/28 05:16:27;;;;;;;11.95;10.20;;;4.40;99.90;;;;;;6305211;22;20574;-73
2022/04/28 05:18:54;;;;;;;11.55;10.13;;;4.50;99.90;;;;;;6303709;22;20220;-72
2022/04/28 05:21:20;;;;;;;11.65;9.88;;;4.50;99.90;;;;;;6304642;22;20179;-73
2022/04/28 05:23:47;;;;;;;11.88;9.10;;;4.60;99.90;;;;;;6303865;22;20195;-73
2022/04/28 05:26:14;;;;;;;10.57;8.68;;;4.70;99.90;;;;;;6304727;22;20171;-72
2022/04/28 05:28:41;;;;;;;12.68;9.95;;;4.80;99.90;;;;;;6313982;22;20216;-72
2022/04/28 05:31:08;;;;;;;12.05;9.27;;;4.90;99.90;;;;;;6304588;22;20174;-72
2022/04/28 05:33:37;;;;;;;10.70;9.60;;;5.00;99.90;;;;;;6314874;22;20190;-72
2022/04/28 05:36:09;;;;;;;10.63;8.73;;;5.10;99.90;;;;;;6303452;22;20245;-72
2022/04/28 05:38:36;;;;;;;11.20;9.25;;;5.20;99.90;;;;;;6304575;22;20615;-72
2022/04/28 05:41:03;;;;;;;10.77;9.68;;;5.40;99.90;;;;;;6304795;22;20186;-72
2022/04/28 05:46:15;;;;;;;12.00;10.20;;;5.60;99.90;;;;;;6311410;22;20155;-73
2022/04/28 05:48:43;;;;;;;14.20;10.80;;;5.80;99.90;;;;;;6299301;22;20188;-72
2022/04/28 05:51:11;;;;;;;12.50;10.52;;;5.90;99.90;;;;;;6304488;22;20179;-73
2022/04/28 05:53:37;;;;;;;13.98;10.27;;;6.00;99.90;;;;;;6304412;22;20222;-73
2022/04/28 05:56:05;;;;;;;12.63;11.32;;;6.20;99.90;;;;;;6305107;22;20194;-73
2022/04/28 05:58:32;;;;;;;13.75;10.88;;;6.30;99.90;;;;;;6304444;22;20221;-73
2022/04/28 06:00:59;;;;;;;13.93;11.30;;;6.50;99.90;;;;;;6303999;22;20175;-73
2022/04/28 06:03:25;;;;;;;14.38;11.48;;;6.60;99.90;;;;;;6304803;22;20182;-73
2022/04/28 06:05:53;;;;;;;15.55;10.68;;;6.80;99.90;;;;;;6304702;22;20172;-74
2022/04/28 06:08:20;;;;;;;11.95;10.27;;;7.00;99.90;;;;;;6304654;22;20198;-74
2022/04/28 06:10:47;;;;;;;12.18;10.07;;;7.10;99.90;;;;;;6305383;22;20565;-73
2022/04/28 06:13:14;;;;;;;10.98;9.80;;;7.40;99.90;;;;;;6304917;22;20575;-73
2022/04/28 06:15:40;;;;;;;10.73;9.18;;;7.50;99.90;;;;;;6305181;22;20179;-74
2022/04/28 06:18:07;;;;;;;10.05;8.50;;;7.70;99.90;;;;;;6304017;22;20195;-73
2022/04/28 06:20:34;;;;;;;11.73;8.68;;;8.00;99.90;;;;;;6304907;22;20172;-73
2022/04/28 06:23:02;;;;;;;11.55;8.90;;;8.10;99.90;;;;;;6304306;22;20591;-73
2022/04/28 06:25:30;;;;;;;9.70;8.70;;;8.30;99.90;;;;;;6304179;22;20191;-73
2022/04/28 06:27:57;;;;;;;9.45;8.48;;;8.50;99.90;;;;;;6304415;22;20539;-73
2022/04/28 06:30:24;;;;;;;9.05;6.60;;;8.70;99.90;;;;;;6305433;22;20182;-72
2022/04/28 06:32:51;;;;;;;11.20;8.05;;;8.90;99.90;;;;;;6304471;22;20175;-72
2022/04/28 06:35:18;;;;;;;8.43;7.60;;;9.10;99.90;;;;;;6304196;22;20195;-73
2022/04/28 06:37:44;;;;;;;9.13;8.13;;;9.30;99.90;;;;;;6301474;22;20188;-72
2022/04/28 06:40:13;;;;;;;7.80;7.00;;;9.50;99.90;;;;;;6303185;22;20254;-73
2022/04/28 06:42:43;;;;;;;8.57;7.15;;;9.70;99.90;;;;;;6300742;22;20693;-72
2022/04/28 06:45:11;;;;;;;8.30;7.40;;;9.80;99.90;;;;;;6302616;22;20233;-72
2022/04/28 06:47:38;;;;;;;10.88;7.35;;;9.90;99.90;;;;;;6299969;22;20182;-72
2022/04/28 06:50:06;;;;;;;7.88;7.07;;;10.00;99.90;;;;;;6300330;22;20175;-73
2022/04/28 06:52:35;;;;;;;9.52;7.15;;;10.10;99.90;;;;;;6303235;22;20678;-72
2022/04/28 06:55:02;;;;;;;9.07;6.90;;;10.20;99.90;;;;;;6298681;22;20299;-69
2022/04/28 06:57:30;;;;;;;8.05;5.93;;;10.30;99.90;;;;;;6303599;22;20198;-69
2022/04/28 07:00:00;;;;;;;7.60;6.65;;;10.30;99.90;;;;;;6297604;22;20171;-69
2022/04/28 07:02:31;;;;;;;8.88;6.43;;;10.40;99.90;;;;;;6300709;22;20175;-69
2022/04/28 07:04:58;;;;;;;6.57;5.97;;;10.60;99.90;;;;;;6303628;22;20199;-69
2022/04/28 07:07:25;;;;;;;6.18;5.45;;;10.70;99.90;;;;;;6304508;22;20189;-69
2022/04/28 07:09:52;;;;;;;6.30;5.70;;;10.70;99.90;;;;;;6302382;22;20175;-69
2022/04/28 07:12:19;;;;;;;7.20;6.22;;;10.80;99.90;;;;;;6303238;22;20511;-69
2022/04/28 07:14:47;;;;;;;6.50;5.78;;;11.00;99.90;;;;;;6303488;22;20195;-69
2022/04/28 07:17:13;;;;;;;6.72;5.50;;;11.10;99.90;;;;;;6303292;22;20227;-69
2022/04/28 07:19:40;;;;;;;5.57;5.07;;;11.20;99.90;;;;;;6302462;22;20179;-69
2022/04/28 07:22:07;;;;;;;5.18;4.68;;;11.30;99.90;;;;;;6303128;22;20182;-69
2022/04/28 07:24:35;;;;;;;5.90;5.00;;;11.40;99.90;;;;;;6302591;22;20191;-69
2022/04/28 07:27:02;;;;;;;6.32;5.15;;;11.50;99.90;;;;;;6303450;22;20172;-69
2022/04/28 07:29:29;;;;;;;5.20;4.70;;;11.60;99.90;;;;;;6302824;22;20178;-69
2022/04/28 07:31:57;;;;;;;7.45;5.78;;;11.70;99.90;;;;;;6302968;22;20171;-69
2022/04/28 07:34:24;;;;;;;6.15;5.40;;;11.70;99.90;;;;;;6303419;22;20202;-69
2022/04/28 07:36:51;;;;;;;6.03;4.82;;;11.80;99.90;;;;;;6302855;22;20646;-68
2022/04/28 07:39:18;;;;;;;5.50;5.00;;;11.90;99.90;;;;;;6302548;22;20175;-70
2022/04/28 07:41:45;;;;;;;5.80;4.63;;;12.00;99.90;;;;;;6303337;22;20207;-69
2022/04/28 07:44:12;;;;;;;4.80;4.40;;;12.00;99.90;;;;;;6303224;22;20198;-69
2022/04/28 07:46:39;;;;;;;5.95;4.40;;;12.10;99.90;;;;;;6302888;22;20262;-69
2022/04/28 07:49:07;;;;;;;4.95;4.45;;;12.30;99.90;;;;;;6302009;22;20231;-69
2022/04/28 07:51:35;;;;;;;5.65;4.57;;;12.30;99.90;;;;;;6302600;22;20258;-69
2022/04/28 07:54:03;;;;;;;6.40;5.20;;;12.40;99.90;;;;;;6302896;22;20206;-69
2022/04/28 07:56:30;;;;;;;6.95;5.25;;;12.50;99.90;;;;;;6302892;22;20171;-69
2022/04/28 07:58:57;;;;;;;6.25;5.65;;;12.60;99.90;;;;;;6303162;22;20191;-69
2022/04/28 08:01:24;;;;;;;6.20;5.60;;;12.60;99.90;;;;;;6302341;22;20181;-68
2022/04/28 08:03:51;;;;;;;5.50;4.97;;;12.60;99.90;;;;;;6303663;22;20529;-69
2022/04/28 08:06:19;;;;;;;5.97;5.10;;;12.80;99.90;;;;;;6303787;22;20261;-68
2022/04/28 08:08:46;;;;;;;5.93;5.43;;;13.00;99.90;;;;;;6302655;22;20190;-69
2022/04/28 08:11:13;;;;;;;5.73;5.13;;;13.20;99.90;;;;;;6305210;22;20910;-69
2022/04/28 08:13:40;;;;;;;7.22;5.00;;;13.30;99.90;;;;;;6304398;22;20525;-69
2022/04/28 08:16:07;;;;;;;5.47;4.65;;;13.40;99.90;;;;;;6305191;22;20202;-69
2022/04/28 08:18:35;;;;;;;5.20;4.73;;;13.60;99.90;;;;;;6304890;22;20191;-69
2022/04/28 08:21:02;;;;;;;5.23;4.73;;;13.70;99.90;;;;;;6305276;22;20417;-69
2022/04/28 08:23:30;;;;;;;5.07;4.57;;;13.90;98.40;;;;;;6302625;22;20504;-69
2022/04/28 08:25:59;;;;;;;5.23;4.73;;;13.90;98.10;;;;;;6304448;22;20417;-69
2022/04/28 08:28:26;;;;;;;5.03;4.27;;;14.00;97.00;;;;;;6304409;22;20504;-69
2022/04/28 08:30:53;;;;;;;6.87;5.20;;;14.20;97.30;;;;;;6304985;22;20420;-69
2022/04/28 08:33:20;;;;;;;6.60;5.10;;;14.30;96.70;;;;;;6302799;22;20457;-69
2022/04/28 08:35:46;;;;;;;5.63;4.90;;;14.50;95.80;;;;;;6305116;22;20421;-69
2022/04/28 08:38:13;;;;;;;6.20;4.60;;;14.90;96.70;;;;;;6302116;22;20447;-69
2022/04/28 08:40:44;;;;;;;5.37;4.83;;;15.40;96.00;;;;;;6303871;22;20427;-69
2022/04/28 08:43:12;;;;;;;4.20;3.80;;;15.70;94.80;;;;;;6304589;22;20408;-69
2022/04/28 08:46:50;;;;;;;5.10;4.60;;;16.10;95.00;;;;;;6304464;22;20419;-69
2022/04/28 08:48:30;;;;;;;4.57;4.17;;;16.80;94.30;;;;;;6302384;22;20417;-69
2022/04/28 08:50:58;;;;;;;4.40;4.00;;;17.20;93.60;;;;;;6304132;22;20414;-69
2022/04/28 08:53:25;;;;;;;5.70;4.07;;;17.40;91.40;;;;;;6304211;22;20508;-69
2022/04/28 08:55:57;;;;;;;4.90;4.43;;;17.50;92.00;;;;;;6303560;22;20408;-69
2022/04/28 08:58:24;;;;;;;4.13;3.80;;;17.80;91.60;;;;;;6303352;22;20425;-69
2022/04/28 09:00:52;;;;;;;4.37;3.97;;;18.10;90.40;;;;;;6303486;22;20417;-69
2022/04/28 09:03:19;;;;;;;3.90;3.40;;;18.60;91.80;;;;;;6303875;22;20508;-69
2022/04/28 09:05:48;;;;;;;3.90;3.60;;;19.10;91.10;;;;;;6304351;22;20417;-69
2022/04/28 09:08:16;;;;;;;4.70;4.10;;;19.70;90.80;;;;;;6303604;22;20420;-69
2022/04/28 09:10:43;;;;;;;4.10;3.80;;;20.00;86.70;;;;;;6303485;22;20428;-69
2022/04/28 09:15:56;;;;;;;3.80;3.50;;;19.60;85.30;;;;;;6303745;22;20772;-69
2022/04/28 09:18:24;;;;;;;5.00;4.47;;;19.20;84.50;;;;;;6302656;22;20661;-69
2022/04/28 09:20:52;;;;;;;4.40;4.00;;;19.30;86.40;;;;;;6303624;22;20557;-69
2022/04/28 09:23:20;;;;;;;4.70;3.90;;;19.30;84.90;;;;;;6304299;22;20969;-69
2022/04/28 09:25:47;;;;;;;7.10;4.37;;;19.50;82.60;;;;;;6303106;22;20417;-69
2022/04/28 09:28:16;;;;;;;4.67;4.20;;;19.30;83.80;;;;;;6303283;22;20421;-69
2022/04/28 09:30:43;;;;;;;4.30;3.90;;;19.40;83.60;;;;;;6303077;22;20909;-69
2022/04/28 09:33:11;;;;;;;4.73;4.30;;;19.70;83.50;;;;;;6303367;22;20418;-69
2022/04/28 09:35:46;;;;;;;4.07;3.67;;;20.10;85.80;;;;;;6303846;22;20448;-69
2022/04/28 09:38:13;;;;;;;3.17;2.93;;;20.60;86.60;;;;;;6303212;22;20429;-69
2022/04/28 09:43:25;;;;;;;3.73;3.43;;;20.50;75.80;;;;;;6303726;22;20401;-69
2022/04/28 09:45:52;;;;;;;3.73;3.37;;;20.70;80.50;;;;;;6303905;22;20753;-69
2022/04/28 09:48:20;;;;;;;5.43;3.90;;;21.40;79.90;;;;;;6302296;22;20417;-68
2022/04/28 09:50:48;;;;;;;3.63;3.33;;;21.80;78.90;;;;;;6303563;22;20418;-68
2022/04/28 09:53:15;;;;;;;4.07;3.60;;;21.70;71.80;;;;;;6303739;22;20440;-70
2022/04/28 09:55:45;;;;;;;3.80;3.40;;;21.20;73.30;;;;;;6302694;22;20432;-70
2022/04/28 09:58:14;;;;;;;3.70;3.40;;;21.10;72.80;;;;;;6303047;22;20438;-70
2022/04/28 10:00:43;;;;;;;3.87;3.53;;;21.10;73.30;;;;;;6302144;22;20420;-70
2022/04/28 10:03:11;;;;;;;3.90;3.47;;;21.20;74.70;;;;;;6303621;22;20445;-70
2022/04/28 10:05:38;;;;;;;4.00;3.53;;;21.70;79.80;;;;;;6303653;22;20498;-70
2022/04/28 10:08:06;;;;;;;4.10;3.63;;;22.10;74.20;;;;;;6303922;22;20505;-68
2022/04/28 10:10:35;;;;;;;4.27;3.60;;;22.50;75.10;;;;;;6301924;22;20410;-69
2022/04/28 10:13:03;;;;;;;4.20;3.10;;;22.90;73.80;;;;;;6304628;22;20418;-69
2022/04/28 10:15:33;;;;;;;3.87;3.57;;;23.10;72.00;;;;;;6304075;22;20441;-69
2022/04/28 10:18:07;;;;;;;4.27;3.30;;;23.00;67.70;;;;;;6300414;22;20442;-69
2022/04/28 10:20:42;;;;;;;5.43;2.80;;;22.50;70.10;;;;;;6303990;22;20405;-69
2022/04/28 10:23:11;;;;;;;5.43;3.47;;;22.40;71.40;;;;;;6304422;22;20408;-70
2022/04/28 10:34:14;;;;;;;5.60;3.43;;;23.30;68.90;;;;;;6303664;22;20420;-69
2022/04/28 10:36:53;;;;;;;3.80;3.50;;;23.10;71.80;;;;;;6303830;22;20489;-69
2022/04/28 10:39:39;;;;;;;4.17;3.77;;;23.30;69.80;;;;;;6302857;22;20972;-69
2022/04/28 10:42:14;;;;;;;3.50;3.20;;;23.50;73.10;;;;;;6303706;22;20425;-69
2022/04/28 10:44:51;;;;;;;3.60;3.03;;;23.40;71.80;;;;;;6303436;22;20437;-69
2022/04/28 10:47:23;;;;;;;5.10;2.93;;;23.20;73.10;;;;;;6303482;22;20902;-69
2022/04/28 10:49:54;;;;;;;5.17;2.90;;;23.00;70.50;;;;;;6303105;22;20402;-69
2022/04/28 10:52:22;;;;;;;3.50;3.20;;;23.10;71.10;;;;;;6303585;22;20442;-69
2022/04/28 10:54:53;;;;;;;3.97;3.50;;;23.20;73.80;;;;;;6302531;22;20449;-70
2022/04/28 10:57:28;;;;;;;3.63;3.33;;;23.70;68.20;;;;;;6304078;22;20455;-69
2022/04/28 10:59:55;;;;;;;3.27;3.07;;;23.80;70.00;;;;;;6302349;22;20425;-69
2022/04/28 11:02:48;;;;;;;3.40;3.13;;;23.90;71.40;;;;;;6303636;22;20420;-69
2022/04/28 11:05:44;;;;;;;3.53;3.23;;;24.00;73.20;;;;;;6303385;22;20433;-69
2022/04/28 11:08:25;;;;;;;3.40;3.10;;;24.30;69.90;;;;;;6303326;22;20404;-69
2022/04/28 11:11:10;;;;;;;4.20;3.00;;;25.00;72.60;;;;;;6303622;22;20765;-69
2022/04/28 11:13:37;;;;;;;3.40;3.10;;;25.10;67.60;;;;;;6303025;22;20773;-69
2022/04/28 11:16:04;;;;;;;3.73;3.43;;;24.40;67.80;;;;;;6303524;22;20959;-69
2022/04/28 11:18:33;;;;;;;3.47;3.17;;;23.80;66.40;;;;;;6301712;22;20957;-69
2022/04/28 11:21:02;;;;;;;3.60;3.30;;;23.70;69.80;;;;;;6303739;22;20413;-69
2022/04/28 11:23:37;;;;;;;3.60;3.23;;;23.90;71.40;;;;;;6303637;22;20800;-69
2022/04/28 11:26:04;;;;;;;3.20;2.90;;;24.40;71.40;;;;;;6303651;22;20416;-69
2022/04/28 11:28:32;;;;;;;4.63;3.30;;;25.10;70.10;;;;;;6301809;22;20501;-69
2022/04/28 11:30:59;;;;;;;3.73;3.40;;;25.60;70.90;;;;;;6301790;22;20427;-68
2022/04/28 11:33:26;;;;;;;3.73;3.43;;;25.40;65.70;;;;;;6303579;22;20444;-73
2022/04/28 11:35:54;;;;;;;3.50;3.23;;;24.80;69.80;;;;;;6302760;22;20422;-70
2022/04/28 11:38:27;;;;;;;3.47;3.17;;;25.20;67.10;;;;;;6301883;22;20433;-70
2022/04/28 11:41:03;;;;;;;3.60;3.30;;;25.60;67.40;;;;;;6302698;22;20429;-71
2022/04/28 11:43:31;;;;;;;4.40;4.00;;;25.10;65.20;;;;;;6302670;22;20448;-73
2022/04/28 11:45:59;;;;;;;3.43;3.13;;;24.60;67.00;;;;;;6303107;22;20417;-70
2022/04/28 11:48:28;;;;;;;4.93;3.00;;;24.90;67.60;;;;;;6302535;22;20413;-70
2022/04/28 11:51:01;;;;;;;3.23;3.00;;;25.20;67.40;;;;;;6302976;22;20429;-70
2022/04/28 11:53:39;;;;;;;4.30;3.90;;;25.50;66.40;;;;;;6302583;22;20711;-71
2022/04/28 11:56:14;;;;;;;3.87;3.30;;;25.50;65.40;;;;;;6303294;22;20409;-72
2022/04/28 11:58:41;;;;;;;4.33;3.93;;;25.50;66.10;;;;;;6302708;22;20431;-71
2022/04/28 12:01:12;;;;;;;3.20;3.00;;;25.80;65.70;;;;;;6302991;22;20474;-72
2022/04/28 12:03:39;;;;;;;4.00;3.60;;;25.70;65.80;;;;;;6303244;22;20437;-72
2022/04/28 12:06:06;;;;;;;3.90;3.43;;;25.00;65.60;;;;;;6303091;22;20496;-73
2022/04/28 12:08:34;;;;;;;4.00;3.47;;;24.90;69.30;;;;;;6302414;22;20420;-74
2022/04/28 12:19:28;;;;;;;3.57;3.20;;;24.10;65.40;;;;;;6271593;22;20922;-74
2022/04/28 12:22:02;;;;;;;3.70;3.40;;;24.30;67.70;;;;;;6272310;22;20468;-73
2022/04/28 12:24:32;;;;;;;4.63;3.80;;;24.90;67.40;;;;;;6271848;22;20815;-73
2022/04/28 12:27:07;;;;;;;3.10;2.80;;;24.90;66.60;;;;;;6273204;22;20406;-73
2022/04/28 12:29:48;;;;;;;3.33;2.97;;;25.30;66.10;;;;;;6271164;22;20424;-71
2022/04/28 12:32:15;;;;;;;3.00;2.80;;;25.80;65.20;;;;;;6271376;22;20883;-73
2022/04/28 12:34:42;;;;;;;5.37;3.70;;;25.80;67.10;;;;;;6271929;22;20492;-72
2022/04/28 12:37:10;;;;;;;3.57;3.23;;;25.50;66.90;;;;;;6273490;22;20444;-73
2022/04/28 12:39:57;;;;;;;4.27;2.90;;;25.20;64.60;;;;;;6281764;22;20473;-75
2022/04/28 12:42:26;;;;;;;3.37;3.10;;;25.50;67.60;;;;;;6273137;22;20425;-74
2022/04/28 12:44:53;;;;;;;3.57;3.03;;;25.60;66.70;;;;;;6272224;22;20488;-74
2022/04/28 12:47:20;;;;;;;3.20;2.90;;;25.20;64.50;;;;;;6272474;22;20421;-74
2022/04/28 12:49:48;;;;;;;3.30;3.00;;;24.90;62.80;;;;;;6269141;22;20467;-74
2022/04/28 12:52:27;;;;;;;3.60;3.30;;;24.40;66.50;;;;;;6271005;22;21006;-74
2022/04/28 12:55:03;;;;;;;5.47;3.10;;;24.30;66.90;;;;;;6272044;22;20818;-71
2022/04/28 12:57:31;;;;;;;5.43;3.27;;;24.30;65.30;;;;;;6274170;22;20403;-72
2022/04/28 13:00:01;;;;;;;6.03;2.97;;;24.60;65.90;;;;;;6273585;22;20442;-73
2022/04/28 13:02:32;;;;;;;3.00;2.70;;;24.90;64.50;;;;;;6274202;22;20413;-72
2022/04/28 13:05:12;;;;;;;3.27;2.97;;;24.90;64.10;;;;;;6273680;22;20438;-72
2022/04/28 13:07:40;;;;;;;3.20;2.73;;;25.00;65.90;;;;;;6274394;22;20402;-73
2022/04/28 13:10:10;;;;;;;10.90;3.10;;;25.10;67.20;;;;;;6272700;22;20471;-72
2022/04/28 13:12:37;;;;;;;3.07;2.70;;;25.10;65.00;;;;;;6273416;22;20419;-72
2022/04/28 13:15:05;;;;;;;3.73;3.03;;;25.40;67.00;;;;;;6273251;22;20446;-72
2022/04/28 13:17:32;;;;;;;3.37;2.80;;;25.20;64.60;;;;;;6273564;22;20418;-71
2022/04/28 13:19:59;;;;;;;3.80;3.40;;;25.30;65.90;;;;;;6273329;22;20442;-73
2022/04/28 13:22:26;;;;;;;4.07;3.07;;;24.70;64.90;;;;;;6274505;22;20425;-73
2022/04/28 13:24:54;;;;;;;4.50;3.60;;;24.30;66.90;;;;;;6274278;22;20438;-72
2022/04/28 13:27:22;;;;;;;3.73;3.43;;;24.20;65.70;;;;;;6275185;22;20418;-71
2022/04/28 13:29:48;;;;;;;4.70;3.10;;;24.30;65.90;;;;;;6274008;22;20472;-71